createdAt,value
2018-10-03T00:07:26.805Z,4
2018-10-03T00:17:35.105Z,3
2018-10-03T00:27:42.711Z,3
2018-10-03T00:37:52.700Z,2
2018-10-03T00:48:01.301Z,2
2018-10-03T00:58:08.577Z,2
2018-10-03T01:08:18.318Z,3
2018-10-03T01:18:27.055Z,2
2018-10-03T01:28:36.123Z,2
2018-10-03T01:38:45.461Z,2
2018-10-03T01:48:54.916Z,2
2018-10-03T01:59:03.388Z,2
2018-10-03T02:09:12.983Z,3
2018-10-03T02:19:20.699Z,2
2018-10-03T02:29:31.904Z,3
2018-10-03T02:39:41.331Z,3
2018-10-03T02:49:50.128Z,2
2018-10-03T03:00:00.695Z,3
2018-10-03T03:10:09.215Z,3
2018-10-03T03:20:17.539Z,2
2018-10-03T03:30:25.645Z,4
2018-10-03T03:40:34.553Z,3
2018-10-03T03:50:41.899Z,4
2018-10-03T04:00:50.384Z,2
2018-10-03T04:01:35.443Z,3
2018-10-03T04:11:43.649Z,1
2018-10-03T04:21:52.895Z,2
2018-10-03T04:32:00.492Z,2
2018-10-03T04:42:08.913Z,2
2018-10-03T04:52:18.117Z,2
2018-10-03T05:02:27.446Z,4
2018-10-03T05:12:36.632Z,3
2018-10-03T05:22:47.124Z,3
2018-10-03T05:32:56.155Z,3
2018-10-03T05:43:05.271Z,3
2018-10-03T05:53:12.988Z,4
2018-10-03T06:03:23.337Z,2
2018-10-03T06:13:32.412Z,3
2018-10-03T06:23:39.222Z,3
2018-10-03T06:33:49.275Z,3
2018-10-03T06:43:55.908Z,3
2018-10-03T06:54:04.415Z,2
2018-10-03T07:04:11.220Z,2
2018-10-03T07:14:20.515Z,3
2018-10-03T07:24:28.051Z,3
2018-10-03T07:34:35.892Z,2
2018-10-03T07:44:45.076Z,6
2018-10-03T07:54:52.449Z,3
2018-10-03T08:05:01.957Z,4
2018-10-03T08:15:10.935Z,3
2018-10-03T08:25:20.575Z,2
2018-10-03T08:35:27.678Z,2
2018-10-03T08:45:35.783Z,3
2018-10-03T08:55:43.199Z,3
2018-10-03T09:05:51.518Z,2
2018-10-03T09:16:01.250Z,2
2018-10-03T09:26:10.083Z,0
2018-10-03T09:36:16.119Z,3
2018-10-03T09:46:24.641Z,1
2018-10-03T09:56:34.626Z,1
2018-10-03T10:06:42.733Z,1
2018-10-03T10:16:51.954Z,1
2018-10-03T10:27:00.601Z,1
2018-10-03T10:37:07.827Z,1
2018-10-03T10:47:18.386Z,2
2018-10-03T10:57:24.351Z,1
2018-10-03T11:07:34.321Z,2
2018-10-03T11:17:42.724Z,1
2018-10-03T11:27:50.697Z,1
2018-10-03T11:37:59.808Z,2
2018-10-03T11:48:08.076Z,1
2018-10-03T12:08:22.267Z,2
2018-10-03T12:18:31.220Z,1
2018-10-03T12:28:40.532Z,2
2018-10-03T12:38:49.160Z,2
2018-10-03T12:48:58.822Z,2
2018-10-03T12:59:10.752Z,3
2018-10-03T13:09:18.404Z,2
2018-10-03T13:19:26.886Z,2
2018-10-03T13:29:35.258Z,3
2018-10-03T13:39:45.778Z,3
2018-10-03T13:49:53.282Z,1
2018-10-03T14:00:01.464Z,2
2018-10-03T14:10:08.970Z,1
2018-10-03T14:20:19.039Z,1
2018-10-03T14:30:28.461Z,2
2018-10-03T14:31:43.532Z,2
2018-10-03T14:41:51.825Z,3
2018-10-03T14:52:02.034Z,2
2018-10-03T15:02:11.001Z,3
2018-10-03T15:12:18.580Z,2
2018-10-03T15:22:28.151Z,3
2018-10-03T15:32:36.463Z,2
2018-10-03T15:42:46.898Z,4
2018-10-03T15:52:51.533Z,4
2018-10-03T16:03:00.320Z,3
2018-10-03T16:13:09.620Z,3
2018-10-03T16:23:16.584Z,2
2018-10-03T16:33:26.163Z,2
2018-10-03T16:43:34.411Z,1
2018-10-03T16:53:42.601Z,2
2018-10-03T17:03:51.146Z,5
2018-10-03T17:14:00.933Z,3
2018-10-03T17:24:09.844Z,5
2018-10-03T17:34:18.999Z,4
2018-10-03T17:44:27.347Z,7
2018-10-03T17:54:35.950Z,6
2018-10-03T18:04:45.909Z,3
2018-10-03T18:14:54.054Z,3
2018-10-03T18:25:03.661Z,3
2018-10-03T18:35:12.686Z,3
2018-10-03T18:45:20.596Z,5
2018-10-03T18:55:28.714Z,5
2018-10-03T19:05:37.800Z,5
2018-10-03T19:15:44.917Z,4
2018-10-03T19:25:51.655Z,8
2018-10-03T19:36:01.990Z,9
2018-10-03T19:46:12.284Z,6
2018-10-03T19:56:17.330Z,4
2018-10-03T20:06:24.375Z,3
2018-10-03T20:16:31.366Z,3
2018-10-03T20:26:40.648Z,8
2018-10-03T20:36:48.875Z,7
2018-10-03T20:46:55.566Z,5
2018-10-03T20:57:02.516Z,5
2018-10-03T21:07:09.874Z,5
2018-10-03T21:17:20.190Z,7
2018-10-03T21:27:28.844Z,5
2018-10-03T21:37:38.874Z,5
2018-10-03T21:47:47.815Z,7
2018-10-03T21:57:58.674Z,4
2018-10-03T22:08:06.578Z,3
2018-10-03T22:18:12.734Z,5
2018-10-03T22:28:22.825Z,5
2018-10-03T22:38:31.177Z,3
2018-10-03T22:48:38.742Z,5
2018-10-03T22:58:46.451Z,4
2018-10-03T23:08:55.512Z,6
2018-10-03T23:19:04.793Z,7
2018-10-03T23:29:13.411Z,5
2018-10-03T23:39:20.858Z,7
2018-10-03T23:49:30.934Z,6
2018-10-03T23:59:39.036Z,5
